createdAt,value
2023-08-21T06:04:52.159Z,1002.11
2023-08-21T06:05:53.604Z,1002.04
2023-08-21T06:06:53.697Z,1002.03
2023-08-21T08:25:15.476Z,1001.72
2023-08-21T08:26:04.382Z,1001.75
2023-08-21T08:27:04.198Z,1001.80
2023-08-21T08:28:04.097Z,1001.75
2023-08-21T08:29:03.997Z,1001.74
2023-08-21T08:30:05.013Z,1001.72
2023-08-21T08:31:04.034Z,1001.77
2023-08-21T08:32:04.024Z,1001.75
2023-08-21T08:33:04.142Z,1001.74
2023-08-21T08:38:59.451Z,1001.72
2023-08-21T08:40:00.951Z,1001.65
2023-08-21T08:41:01.082Z,1001.65
2023-08-21T08:42:00.659Z,1001.68
2023-08-21T08:43:00.687Z,1001.74
2023-08-21T08:44:00.730Z,1001.71
2023-08-21T08:45:00.786Z,1001.71
2023-08-21T08:46:00.690Z,1001.70
2023-08-21T08:47:00.949Z,1001.67
2023-08-21T08:48:00.636Z,1001.69
2023-08-21T08:49:00.672Z,1001.65
2023-08-21T08:50:00.602Z,1001.66
2023-08-21T08:51:00.586Z,1001.67
2023-08-21T08:52:21.304Z,1001.67
2023-08-21T08:53:10.072Z,1001.68
2023-08-21T08:54:02.652Z,1001.63
2023-08-21T08:55:00.484Z,1001.57
2023-08-21T09:04:17.042Z,1001.63
2023-08-21T09:16:41.388Z,1001.48
2023-08-21T09:17:41.082Z,1001.50
2023-08-21T09:18:41.169Z,1001.51
2023-08-21T09:19:41.576Z,1001.52
2023-08-21T09:20:40.728Z,1001.43
2023-08-21T09:21:40.696Z,1001.41
2023-08-21T09:22:45.007Z,1001.38
2023-08-21T09:23:40.681Z,1001.40
2023-08-21T09:25:40.530Z,1001.39
2023-08-21T09:46:12.143Z,1001.38
2023-08-21T09:47:12.315Z,1001.35
2023-08-21T10:15:27.352Z,1001.03
2023-08-21T10:16:02.321Z,1001.01
2023-08-21T10:17:02.365Z,1000.97
2023-08-21T10:18:02.158Z,1000.97
2023-08-21T10:19:02.287Z,1000.97
2023-08-21T10:20:02.153Z,1000.95
2023-08-21T10:21:02.040Z,1000.95
2023-08-21T10:22:02.003Z,1000.96
2023-08-21T10:23:02.017Z,1000.93
2023-08-21T10:24:02.073Z,1001.00
2023-08-21T10:25:02.018Z,1000.91
2023-08-21T10:26:02.471Z,1000.89
2023-08-21T10:27:01.894Z,1000.86
2023-08-21T10:28:01.849Z,1000.98
2023-08-21T10:29:01.917Z,1000.93
2023-08-21T10:30:01.853Z,1000.97
2023-08-21T10:31:02.033Z,1000.97
2023-08-21T10:32:01.878Z,1000.95
2023-08-21T10:33:01.859Z,1001.00
2023-08-21T10:34:01.909Z,1000.87
2023-08-21T10:35:01.837Z,1000.93
2023-08-21T10:36:01.921Z,1000.93
2023-08-21T10:37:01.912Z,1000.97
2023-08-21T10:42:42.587Z,1000.99
2023-08-21T10:43:16.531Z,1000.97
2023-08-21T10:44:16.546Z,1000.96
2023-08-21T10:45:16.348Z,1000.96
2023-08-21T10:49:28.877Z,1000.94
2023-08-21T10:50:28.993Z,1000.96
2023-08-21T10:56:12.054Z,1000.89
2023-08-21T10:57:13.554Z,1000.84
2023-08-21T10:58:13.636Z,1000.83
2023-08-21T10:59:13.266Z,1000.80
2023-08-21T11:00:13.166Z,1000.76
2023-08-21T11:01:13.196Z,1000.76
2023-08-21T11:02:13.195Z,1000.78
2023-08-21T11:03:13.178Z,1000.80
2023-08-21T11:04:13.517Z,1000.76
2023-08-21T11:05:13.336Z,1000.80
2023-08-21T11:06:13.208Z,1000.78
2023-08-21T11:07:13.218Z,1000.79
2023-08-21T11:08:13.243Z,1000.75
2023-08-21T11:09:13.199Z,1000.69
2023-08-21T11:10:13.108Z,1000.72
2023-08-21T11:11:13.180Z,1000.74
2023-08-21T11:12:13.075Z,1000.75
2023-08-21T11:13:13.099Z,1000.74
2023-08-21T11:14:13.090Z,1000.74
2023-08-21T11:15:13.324Z,1000.76
2023-08-21T11:16:13.138Z,1000.79
2023-08-21T11:17:13.053Z,1000.79
2023-08-21T11:18:13.142Z,1000.77
2023-08-21T11:19:13.069Z,1000.75
2023-08-21T11:20:13.002Z,1000.74
2023-08-21T11:21:13.072Z,1000.68
2023-08-21T11:22:13.003Z,1000.66
2023-08-21T11:23:12.986Z,1000.64
2023-08-21T11:24:13.065Z,1000.64
2023-08-21T11:25:13.005Z,1000.65
2023-08-21T11:26:20.812Z,1000.63
2023-08-21T11:27:15.018Z,1000.61
2023-08-21T11:28:12.909Z,1000.66
2023-08-21T11:29:12.953Z,1000.71
2023-08-21T11:30:12.865Z,1000.70
2023-08-21T11:31:12.891Z,1000.62
2023-08-21T11:32:12.855Z,1000.70
2023-08-21T11:33:13.033Z,1000.75
2023-08-21T11:34:23.565Z,1000.65
2023-08-21T11:35:14.998Z,1000.60
2023-08-21T11:36:12.853Z,1000.62
2023-08-21T11:37:12.922Z,1000.58
2023-08-21T11:38:12.901Z,1000.55
2023-08-21T11:39:12.990Z,1000.57
2023-08-21T11:40:12.940Z,1000.52
2023-08-21T11:41:12.917Z,1000.55
2023-08-21T11:42:12.931Z,1000.52
2023-08-21T11:43:12.870Z,1000.57
2023-08-21T11:44:12.904Z,1000.57
2023-08-21T11:45:13.174Z,1000.58
2023-08-21T11:46:12.913Z,1000.57
2023-08-21T11:47:12.893Z,1000.62
2023-08-21T11:48:12.901Z,1000.60
2023-08-21T11:49:12.853Z,1000.62
2023-08-21T11:50:12.877Z,1000.60
2023-08-21T11:51:12.858Z,1000.56
2023-08-21T11:52:12.795Z,1000.61
2023-08-21T11:53:12.819Z,1000.48
2023-08-21T11:54:12.792Z,1000.47
2023-08-21T11:55:12.870Z,1000.52
2023-08-21T11:56:13.108Z,1000.45
2023-08-21T11:57:12.862Z,1000.49
2023-08-21T11:58:12.747Z,1000.46
2023-08-21T11:59:12.845Z,1000.41
2023-08-21T12:00:12.768Z,1000.43
2023-08-21T12:01:12.855Z,1000.48
2023-08-21T12:02:12.734Z,1000.53
2023-08-21T12:03:12.817Z,1000.59
2023-08-21T12:04:12.778Z,1000.56
2023-08-21T12:05:12.710Z,1000.56
2023-08-21T12:06:55.104Z,1000.59
2023-08-21T12:07:12.616Z,1000.59
2023-08-21T12:08:12.995Z,1000.54
2023-08-21T12:09:12.740Z,1000.47
2023-08-21T12:10:12.610Z,1000.48
2023-08-21T12:11:12.636Z,1000.49
2023-08-21T12:12:12.613Z,1000.46
2023-08-21T12:13:12.579Z,1000.43
2023-08-21T12:14:12.516Z,1000.44
2023-08-21T12:15:12.573Z,1000.43
2023-08-21T12:16:12.577Z,1000.46
2023-08-21T12:17:12.576Z,1000.48
2023-08-21T12:18:12.570Z,1000.43
2023-08-21T12:19:12.541Z,1000.54
2023-08-21T12:20:12.550Z,1000.48
2023-08-21T12:21:12.544Z,1000.47
2023-08-21T12:22:12.664Z,1000.44
2023-08-21T12:23:12.677Z,1000.45
2023-08-21T12:24:12.633Z,1000.43
2023-08-21T12:25:12.636Z,1000.44
2023-08-21T12:26:12.617Z,1000.46
2023-08-21T12:27:12.581Z,1000.42
2023-08-21T12:28:12.656Z,1000.47
2023-08-21T12:29:12.581Z,1000.48
2023-08-21T12:30:12.808Z,1000.44
2023-08-21T12:31:12.702Z,1000.47
2023-08-21T12:32:12.655Z,1000.37
2023-08-21T12:33:22.586Z,1000.45
2023-08-21T12:34:14.464Z,1000.40
2023-08-21T12:35:12.627Z,1000.47
2023-08-21T12:36:12.708Z,1000.37
2023-08-21T12:37:12.674Z,1000.38
2023-08-21T12:38:12.662Z,1000.42
2023-08-21T12:39:12.519Z,1000.47
2023-08-21T12:40:12.486Z,1000.42
2023-08-21T12:41:12.711Z,1000.35
2023-08-21T12:42:12.562Z,1000.36
2023-08-21T12:43:12.623Z,1000.35
2023-08-21T12:44:12.582Z,1000.27
2023-08-21T12:45:12.593Z,1000.33
2023-08-21T12:46:12.517Z,1000.36
2023-08-21T12:47:12.739Z,1000.38
2023-08-21T12:48:12.697Z,1000.34
2023-08-21T12:49:12.546Z,1000.38
2023-08-21T12:50:12.489Z,1000.35
2023-08-21T12:51:12.491Z,1000.34
2023-08-21T12:52:12.845Z,1000.37
2023-08-21T12:53:12.498Z,1000.36
2023-08-21T12:54:12.454Z,1000.35
2023-08-21T12:55:12.332Z,1000.31
2023-08-21T12:56:13.142Z,1000.41
2023-08-21T12:57:12.333Z,1000.35
2023-08-21T12:58:12.265Z,1000.37
2023-08-21T12:59:12.442Z,1000.27
2023-08-21T13:00:12.306Z,1000.22
2023-08-21T13:01:12.332Z,1000.22
2023-08-21T13:02:12.307Z,1000.28
2023-08-21T13:03:12.450Z,1000.22
2023-08-21T13:04:12.345Z,1000.19
2023-08-21T13:05:12.416Z,1000.21
2023-08-21T13:06:12.366Z,1000.19
2023-08-21T13:07:12.420Z,1000.20
2023-08-21T13:08:12.591Z,1000.22
2023-08-21T13:09:12.279Z,1000.28
2023-08-21T13:10:12.299Z,1000.21
2023-08-21T13:11:12.366Z,1000.28
2023-08-21T13:12:12.297Z,1000.14
2023-08-21T13:13:12.608Z,1000.15
2023-08-21T13:14:12.267Z,1000.16
2023-08-21T13:15:12.377Z,1000.12
2023-08-21T13:16:12.297Z,1000.19
2023-08-21T13:17:12.327Z,1000.24
2023-08-21T13:18:12.275Z,1000.20
2023-08-21T13:19:12.383Z,1000.16
2023-08-21T13:20:12.330Z,1000.18
2023-08-21T13:21:12.281Z,1000.18
2023-08-21T13:22:12.216Z,1000.22
2023-08-21T13:23:12.263Z,1000.13
2023-08-21T13:24:12.247Z,1000.25
2023-08-21T13:25:12.276Z,1000.22
2023-08-21T13:26:12.221Z,1000.23
2023-08-21T13:27:12.192Z,1000.19
2023-08-21T13:28:12.085Z,1000.19
2023-08-21T13:29:12.097Z,1000.16
2023-08-21T13:30:12.055Z,1000.19
2023-08-21T13:31:12.259Z,1000.15
2023-08-21T13:32:12.042Z,1000.20
2023-08-21T13:33:13.038Z,1000.20
2023-08-21T13:34:12.081Z,1000.17
2023-08-21T13:35:12.110Z,1000.20
2023-08-21T13:36:12.033Z,1000.13
2023-08-21T13:37:12.085Z,1000.13
2023-08-21T13:38:12.234Z,1000.09
2023-08-21T13:39:12.118Z,1000.10
2023-08-21T13:40:13.400Z,1000.01
2023-08-21T13:41:13.114Z,1000.09
2023-08-21T13:42:12.265Z,1000.08
2023-08-21T13:43:12.128Z,1000.18
2023-08-21T13:44:12.333Z,1000.15
2023-08-21T13:45:12.054Z,1000.19
2023-08-21T13:46:12.047Z,1000.21
2023-08-21T13:47:12.132Z,1000.09
2023-08-21T13:48:12.042Z,1000.09
2023-08-21T13:49:11.995Z,1000.04
2023-08-21T13:50:12.066Z,1000.07
2023-08-21T13:51:12.034Z,1000.02
2023-08-21T13:52:11.963Z,1000.02
2023-08-21T13:53:12.140Z,1000.04
2023-08-21T13:54:12.005Z,1000.04
2023-08-21T13:55:12.069Z,1000.03
2023-08-21T13:56:12.063Z,1000.05
2023-08-21T13:57:11.963Z,1000.02
2023-08-21T13:58:12.096Z,1000.00
2023-08-21T13:59:12.088Z,1000.02
2023-08-21T14:00:12.248Z,1000.02
2023-08-21T14:01:12.046Z,1000.02
2023-08-21T14:02:11.951Z,999.98
2023-08-21T14:03:12.087Z,1000.04
2023-08-21T14:04:11.984Z,1000.01
2023-08-21T14:05:12.453Z,1000.00
2023-08-21T14:06:11.828Z,999.99
2023-08-21T14:07:11.800Z,999.98
2023-08-21T14:08:11.758Z,1000.00
2023-08-21T14:09:11.844Z,999.95
2023-08-21T14:10:11.790Z,999.90
2023-08-21T14:11:11.889Z,999.81
2023-08-21T14:12:11.775Z,999.81
2023-08-21T14:13:11.768Z,999.83
2023-08-21T14:14:11.857Z,999.82
2023-08-21T14:15:12.049Z,999.87
2023-08-21T14:16:11.839Z,999.80
2023-08-21T14:17:11.827Z,999.72
2023-08-21T14:18:12.139Z,999.69
2023-08-21T14:19:11.911Z,999.65
2023-08-21T14:20:12.004Z,999.58
2023-08-21T14:21:11.907Z,999.56
2023-08-21T14:22:11.878Z,999.56
2023-08-21T14:23:11.859Z,999.46
2023-08-21T14:24:11.911Z,999.48
2023-08-21T14:25:11.839Z,999.39
2023-08-21T14:26:11.929Z,999.41
2023-08-21T14:27:11.782Z,999.35
2023-08-21T14:28:11.841Z,999.40
2023-08-21T14:29:12.072Z,999.48
2023-08-21T14:30:11.948Z,999.57
2023-08-21T14:31:11.841Z,999.46
2023-08-21T14:32:11.915Z,999.43
2023-08-21T14:33:11.858Z,999.43
2023-08-21T14:34:12.057Z,999.54
2023-08-21T14:35:11.806Z,999.59
2023-08-21T14:36:11.739Z,999.63
2023-08-21T14:37:11.745Z,999.68
2023-08-21T14:38:12.102Z,999.75
2023-08-21T14:39:11.649Z,999.74
2023-08-21T14:40:11.624Z,999.75
2023-08-21T14:41:11.597Z,999.63
2023-08-21T14:42:12.724Z,999.64
2023-08-21T14:43:11.598Z,999.61
2023-08-21T14:44:11.707Z,999.58
2023-08-21T14:45:11.667Z,999.49
2023-08-21T14:46:12.009Z,999.48
2023-08-21T14:47:11.768Z,999.41
2023-08-21T14:48:11.750Z,999.34
2023-08-21T14:49:11.747Z,999.35
2023-08-21T14:50:11.652Z,999.26
2023-08-21T14:51:12.074Z,999.19
2023-08-21T14:52:11.726Z,999.14
2023-08-21T14:53:11.760Z,999.09
2023-08-21T14:54:11.618Z,999.06
2023-08-21T14:55:11.706Z,998.97
2023-08-21T14:56:11.645Z,999.02
2023-08-21T14:57:11.832Z,998.92
2023-08-21T14:58:11.653Z,998.97
2023-08-21T14:59:11.696Z,998.98
2023-08-21T15:00:11.606Z,999.11
2023-08-21T15:01:11.638Z,999.22
2023-08-21T15:02:11.925Z,999.39
2023-08-21T15:03:11.630Z,999.38
2023-08-21T15:04:11.736Z,999.51
2023-08-21T15:05:11.478Z,999.62
2023-08-21T15:06:11.491Z,999.60
2023-08-21T15:07:11.552Z,999.56
2023-08-21T15:08:11.474Z,999.61
2023-08-21T15:09:11.462Z,999.54
2023-08-21T15:10:11.474Z,999.61
2023-08-21T15:11:11.530Z,999.65
2023-08-21T15:12:11.422Z,999.72
2023-08-21T15:13:11.457Z,999.74
2023-08-21T15:14:11.532Z,999.65
2023-08-21T15:15:11.577Z,999.26
2023-08-21T15:16:11.702Z,999.34
2023-08-21T15:17:18.956Z,999.30
2023-08-21T15:18:13.539Z,999.31
2023-08-21T15:19:11.620Z,999.28
2023-08-21T15:20:11.725Z,999.26
2023-08-21T15:21:11.533Z,999.18
2023-08-21T15:22:11.620Z,999.22
2023-08-21T15:23:11.568Z,999.25
2023-08-21T15:24:11.660Z,999.21
2023-08-21T15:25:11.816Z,999.23
2023-08-21T15:26:11.607Z,999.25
2023-08-21T15:27:11.449Z,999.36
2023-08-21T15:28:11.409Z,999.27
2023-08-21T15:29:11.467Z,999.26
2023-08-21T15:30:11.466Z,999.33
2023-08-21T15:31:11.471Z,999.29
2023-08-21T15:32:11.516Z,999.31
2023-08-21T15:33:11.393Z,999.27
2023-08-21T15:37:16.097Z,999.17
2023-08-21T15:38:16.096Z,999.16
2023-08-21T15:39:16.256Z,999.11
2023-08-21T15:40:16.121Z,999.06
2023-08-21T15:41:16.236Z,999.15
2023-08-21T15:42:16.108Z,999.09
2023-08-21T15:43:16.017Z,999.00
2023-08-21T15:44:16.112Z,999.03
2023-08-21T15:45:17.484Z,998.93
2023-08-21T15:46:17.379Z,998.93
2023-08-21T15:47:36.932Z,998.93
2023-08-21T15:48:18.232Z,998.90
2023-08-21T15:49:17.523Z,998.82
2023-08-21T15:50:17.450Z,998.79
2023-08-21T15:51:17.225Z,998.78
2023-08-21T15:52:17.204Z,998.82
2023-08-21T15:53:17.171Z,998.78
2023-08-21T15:54:17.162Z,998.76
2023-08-21T15:55:17.193Z,998.65
2023-08-21T15:56:17.227Z,998.78
2023-08-21T15:57:17.221Z,998.71
2023-08-21T15:58:17.177Z,998.70
2023-08-21T15:59:17.142Z,998.73
2023-08-21T16:00:17.503Z,998.86
2023-08-21T16:01:17.232Z,998.97
2023-08-21T16:02:17.185Z,999.07
2023-08-21T16:03:17.217Z,999.06
2023-08-21T16:04:17.192Z,999.10
2023-08-21T16:05:17.132Z,999.09
2023-08-21T16:06:17.242Z,999.17
2023-08-21T16:07:17.136Z,999.20
2023-08-21T16:08:17.209Z,999.18
2023-08-21T16:09:19.192Z,999.12
2023-08-21T16:10:17.166Z,999.31
2023-08-21T16:11:17.456Z,999.30
2023-08-21T16:12:17.090Z,999.30
2023-08-21T16:13:16.985Z,999.32
2023-08-21T16:14:16.988Z,999.31
2023-08-21T16:15:17.018Z,999.30
2023-08-21T16:16:17.078Z,999.31
2023-08-21T16:17:16.976Z,999.29
2023-08-21T16:18:17.001Z,999.23
2023-08-21T16:19:17.303Z,999.28
2023-08-21T16:20:16.955Z,998.89
2023-08-21T16:21:16.922Z,998.93
2023-08-21T16:22:16.960Z,998.97
2023-08-21T16:23:16.930Z,998.92
2023-08-21T16:24:16.946Z,998.96
2023-08-21T16:25:17.007Z,998.93
2023-08-21T16:26:17.037Z,999.05
2023-08-21T16:27:48.289Z,999.02
2023-08-21T16:28:18.593Z,999.03
2023-08-21T16:29:18.917Z,999.03
2023-08-21T16:30:17.018Z,999.03
2023-08-21T16:31:17.095Z,998.94
2023-08-21T16:32:17.011Z,999.02
2023-08-21T16:33:17.095Z,999.07
2023-08-21T16:34:16.931Z,999.01
2023-08-21T16:35:16.950Z,998.98
2023-08-21T16:36:16.987Z,998.96
2023-08-21T16:37:16.955Z,998.89
2023-08-21T16:38:17.068Z,998.84
2023-08-21T16:39:16.998Z,998.92
2023-08-21T16:40:17.201Z,998.96
2023-08-21T16:41:16.918Z,998.90
2023-08-21T16:42:16.955Z,998.92
2023-08-21T16:43:16.973Z,998.91
2023-08-21T16:44:16.919Z,998.88
2023-08-21T16:45:16.968Z,998.88
2023-08-21T16:46:16.993Z,998.91
2023-08-21T16:47:16.856Z,998.89
2023-08-21T16:48:16.938Z,998.92
2023-08-21T16:49:16.986Z,998.90
2023-08-21T16:50:17.018Z,998.85
2023-08-21T16:51:17.203Z,998.91
2023-08-21T16:53:23.314Z,998.92
2023-08-21T16:54:18.963Z,998.86
2023-08-21T16:55:16.854Z,998.87
2023-08-21T16:56:16.922Z,998.91
2023-08-21T16:57:16.827Z,998.88
2023-08-21T16:58:16.736Z,998.93
2023-08-21T16:59:16.783Z,998.93
2023-08-21T17:00:16.738Z,998.89
2023-08-21T17:46:14.985Z,999.21
2023-08-21T17:46:49.390Z,999.09
2023-08-21T17:47:49.367Z,999.18
2023-08-21T17:48:49.068Z,999.11
2023-08-21T17:49:50.123Z,999.09
2023-08-21T17:50:48.974Z,999.14
2023-08-21T17:51:49.363Z,999.13
2023-08-21T17:52:49.096Z,999.08
2023-08-21T17:53:49.318Z,999.15
2023-08-21T17:54:48.973Z,999.12
2023-08-21T17:55:49.280Z,999.11
2023-08-21T17:56:48.920Z,999.11
2023-08-21T17:57:48.958Z,999.21
2023-08-21T17:58:48.947Z,999.16
2023-08-21T17:59:48.925Z,999.14
2023-08-21T18:00:49.088Z,999.17
2023-08-21T18:01:48.970Z,999.20
2023-08-21T18:02:48.993Z,999.21
2023-08-21T18:03:48.875Z,999.12
2023-08-21T18:04:48.881Z,999.15
2023-08-21T18:05:49.197Z,999.16
2023-08-21T18:06:49.696Z,999.12
2023-08-21T18:07:48.940Z,999.15
2023-08-21T18:08:49.016Z,999.13
2023-08-21T18:09:49.036Z,999.11
2023-08-21T18:10:51.718Z,999.09
2023-08-21T18:11:50.294Z,999.11
2023-08-21T18:12:49.452Z,999.16
2023-08-21T18:13:48.915Z,999.22
2023-08-21T18:14:48.968Z,999.21
2023-08-21T18:15:48.883Z,999.27
2023-08-21T18:16:48.869Z,999.20
2023-08-21T18:17:49.114Z,999.21
2023-08-21T18:18:49.136Z,999.21
2023-08-21T18:19:48.834Z,999.14
2023-08-21T18:20:48.851Z,999.19
2023-08-21T18:21:48.894Z,999.18
2023-08-21T18:22:48.868Z,999.19
2023-08-21T18:23:48.836Z,999.17
2023-08-21T18:24:48.808Z,999.13
2023-08-21T18:25:49.001Z,999.24
2023-08-21T18:26:48.852Z,999.22
2023-08-21T18:27:48.878Z,999.20
2023-08-21T18:28:48.782Z,999.18
2023-08-21T18:29:49.606Z,999.14
2023-08-21T18:30:49.036Z,999.22
2023-08-21T18:31:48.829Z,999.27
2023-08-21T18:32:49.045Z,999.25
2023-08-21T18:33:48.949Z,999.25
2023-08-21T18:34:48.673Z,999.23
2023-08-21T18:35:48.765Z,999.20
2023-08-21T18:36:48.794Z,999.19
2023-08-21T18:37:48.695Z,999.27
2023-08-21T18:38:48.784Z,999.29
2023-08-21T18:39:48.754Z,999.26
2023-08-21T18:40:49.629Z,999.28
2023-08-21T18:41:49.097Z,999.29
2023-08-21T18:42:48.585Z,999.25
2023-08-21T18:43:48.996Z,999.27
2023-08-21T18:44:48.754Z,999.33
2023-08-21T18:45:48.815Z,999.30
2023-08-21T18:46:48.896Z,999.43
2023-08-21T18:47:48.802Z,999.37
2023-08-21T18:48:49.025Z,999.35
2023-08-21T18:49:48.765Z,999.44
2023-08-21T18:50:48.713Z,999.42
2023-08-21T18:51:48.686Z,999.39
2023-08-21T18:52:49.803Z,999.40
2023-08-21T18:53:49.037Z,999.48
2023-08-21T18:54:48.703Z,999.45
2023-08-21T18:55:48.804Z,999.47
2023-08-21T18:59:32.690Z,999.47
2023-08-21T19:00:32.393Z,999.44
2023-08-21T19:01:32.152Z,999.50
2023-08-21T19:02:32.075Z,999.44
2023-08-21T19:03:32.021Z,999.43
2023-08-21T19:04:32.268Z,999.50
2023-08-21T19:05:32.079Z,999.50
2023-08-21T19:06:31.943Z,999.57
2023-08-21T19:07:32.110Z,999.57
2023-08-21T19:08:32.019Z,999.50
2023-08-21T19:09:31.927Z,999.55
2023-08-21T19:10:32.368Z,999.57
2023-08-21T19:11:50.572Z,999.57
2023-08-21T19:12:31.841Z,999.60
